createdAt,value
2023-04-22T00:00:27.443Z,9.20
2023-04-22T00:01:00.103Z,10.00
2023-04-22T00:01:32.750Z,10.90
2023-04-22T00:02:05.501Z,8.60
2023-04-22T00:02:38.344Z,8.60
2023-04-22T00:03:11.376Z,9.60
2023-04-22T00:03:37.974Z,9.30
2023-04-22T00:04:04.447Z,11.10
2023-04-22T00:04:31.157Z,10.40
2023-04-22T00:04:57.590Z,9.80
2023-04-22T00:05:30.423Z,9.20
2023-04-22T00:06:03.087Z,9.70
2023-04-22T00:06:35.753Z,10.60
2023-04-22T00:07:08.426Z,10.40
2023-04-22T00:07:41.090Z,10.60
2023-04-22T00:08:13.761Z,12.80
2023-04-22T00:08:46.444Z,10.40
2023-04-22T00:09:19.120Z,11.40
2023-04-22T00:09:51.778Z,10.00
2023-04-22T00:10:24.449Z,9.30
2023-04-22T00:10:57.117Z,10.70
2023-04-22T00:11:29.779Z,13.80
2023-04-22T00:12:02.453Z,11.70
2023-04-22T00:12:35.116Z,8.70
2023-04-22T00:13:07.801Z,10.20
2023-04-22T00:13:40.475Z,10.80
2023-04-22T00:14:13.153Z,9.10
2023-04-22T00:14:45.829Z,9.70
2023-04-22T00:15:18.510Z,9.20
2023-04-22T00:15:51.374Z,9.30
2023-04-22T00:16:24.140Z,8.40
2023-04-22T00:16:56.852Z,10.40
2023-04-22T00:17:29.540Z,8.50
2023-04-22T00:18:02.273Z,8.60
2023-04-22T00:18:34.958Z,9.30
2023-04-22T00:19:07.638Z,9.60
2023-04-22T00:19:40.737Z,8.80
2023-04-22T00:20:07.138Z,8.60
2023-04-22T00:20:39.822Z,8.10
2023-04-22T00:21:12.502Z,9.20
2023-04-22T00:21:45.177Z,8.70
2023-04-22T00:22:17.854Z,9.20
2023-04-22T00:22:50.536Z,10.30
2023-04-22T00:23:23.211Z,10.80
2023-04-22T00:23:55.930Z,8.70
2023-04-22T00:24:28.622Z,9.10
2023-04-22T00:25:01.266Z,8.90
2023-04-22T00:25:33.926Z,7.80
2023-04-22T00:26:06.644Z,8.60
2023-04-22T00:26:39.298Z,10.10
2023-04-22T00:27:11.959Z,9.40
2023-04-22T00:27:44.623Z,8.00
2023-04-22T00:28:17.300Z,9.10
2023-04-22T00:28:49.998Z,9.50
2023-04-22T00:29:22.687Z,8.80
2023-04-22T00:29:55.354Z,8.90
2023-04-22T00:30:28.017Z,9.70
2023-04-22T00:31:00.728Z,10.10
2023-04-22T00:31:33.531Z,8.90
2023-04-22T00:32:06.206Z,8.40
2023-04-22T00:32:38.897Z,7.90
2023-04-22T00:33:11.584Z,9.30
2023-04-22T00:33:44.234Z,7.70
2023-04-22T00:34:16.900Z,8.70
2023-04-22T00:34:49.574Z,8.90
2023-04-22T00:35:22.243Z,9.30
2023-04-22T00:35:54.909Z,8.90
2023-04-22T00:36:27.588Z,8.80
2023-04-22T00:37:00.258Z,9.50
2023-04-22T00:37:32.936Z,10.20
2023-04-22T00:38:05.600Z,7.60
2023-04-22T00:38:38.265Z,8.30
2023-04-22T00:39:10.952Z,9.60
2023-04-22T00:39:43.816Z,8.60
2023-04-22T00:40:16.516Z,9.10
2023-04-22T00:40:49.174Z,8.80
2023-04-22T00:41:21.853Z,9.50
2023-04-22T00:41:54.522Z,9.70
2023-04-22T00:42:27.227Z,8.20
2023-04-22T00:42:59.911Z,9.00
2023-04-22T00:43:32.563Z,9.70
2023-04-22T00:44:05.238Z,8.30
2023-04-22T00:44:37.916Z,10.30
2023-04-22T00:45:10.578Z,9.70
2023-04-22T00:45:43.289Z,9.80
2023-04-22T00:46:14.409Z,8.40
2023-04-22T00:46:47.081Z,10.00
2023-04-22T00:47:19.768Z,8.00
2023-04-22T00:47:52.456Z,9.50
2023-04-22T00:48:26.847Z,9.20
2023-04-22T00:48:56.225Z,8.80
2023-04-22T00:49:28.883Z,9.50
2023-04-22T00:50:01.567Z,7.60
2023-04-22T00:50:34.236Z,9.40
2023-04-22T00:51:06.894Z,8.40
2023-04-22T00:51:39.558Z,8.30
2023-04-22T00:52:12.234Z,7.90
2023-04-22T00:52:44.892Z,8.20
2023-04-22T00:53:17.556Z,8.50
2023-04-22T00:53:50.220Z,11.40
2023-04-22T00:54:22.883Z,8.60
2023-04-22T00:54:55.568Z,7.80
2023-04-22T00:55:28.233Z,9.40
2023-04-22T00:56:00.896Z,9.30
2023-04-22T00:56:33.566Z,8.80
2023-04-22T00:57:06.233Z,9.40
2023-04-22T00:57:38.909Z,9.60
2023-04-22T00:58:11.556Z,9.40
2023-04-22T00:58:44.231Z,8.20
2023-04-22T00:59:16.906Z,8.80
2023-04-22T00:59:49.600Z,9.60
2023-04-22T01:00:22.294Z,8.00
2023-04-22T01:00:55.044Z,8.10
2023-04-22T01:01:27.811Z,9.00
2023-04-22T01:02:00.517Z,7.50
2023-04-22T01:02:33.378Z,8.40
2023-04-22T01:03:06.251Z,10.70
2023-04-22T01:03:39.348Z,7.70
2023-04-22T01:04:05.683Z,7.70
2023-04-22T01:04:38.347Z,9.30
2023-04-22T01:05:11.046Z,8.20
2023-04-22T01:05:43.714Z,8.40
2023-04-22T01:06:16.383Z,7.60
2023-04-22T01:06:47.467Z,9.20
2023-04-22T01:07:20.120Z,9.50
2023-04-22T01:07:52.811Z,8.00
2023-04-22T01:08:25.453Z,7.90
2023-04-22T01:08:58.120Z,7.50
2023-04-22T01:09:30.780Z,8.80
2023-04-22T01:10:03.475Z,8.60
2023-04-22T01:10:36.154Z,9.30
2023-04-22T01:11:08.793Z,7.60
2023-04-22T01:11:41.459Z,7.40
2023-04-22T01:12:14.124Z,8.10
2023-04-22T01:12:46.792Z,8.80
2023-04-22T01:13:19.472Z,7.20
2023-04-22T01:13:52.134Z,8.50
2023-04-22T01:14:24.806Z,8.30
2023-04-22T01:14:57.468Z,9.70
2023-04-22T01:15:30.147Z,8.30
2023-04-22T01:16:02.834Z,9.40
2023-04-22T01:16:35.563Z,8.30
2023-04-22T01:17:08.486Z,8.60
2023-04-22T01:17:34.919Z,9.40
2023-04-22T01:18:07.652Z,9.40
2023-04-22T01:18:38.665Z,9.60
2023-04-22T01:19:11.357Z,9.90
2023-04-22T01:19:44.373Z,8.90
2023-04-22T01:20:10.816Z,10.00
2023-04-22T01:20:43.463Z,10.60
2023-04-22T01:21:16.144Z,11.20
2023-04-22T01:21:47.220Z,10.30
2023-04-22T01:22:19.897Z,14.20
2023-04-22T01:22:52.567Z,10.90
2023-04-22T01:23:25.246Z,11.20
2023-04-22T01:23:57.911Z,12.40
2023-04-22T01:24:30.593Z,13.30
2023-04-22T01:25:03.255Z,12.40
2023-04-22T01:25:35.934Z,12.70
2023-04-22T01:26:08.603Z,12.40
2023-04-22T01:26:41.266Z,13.20
2023-04-22T01:27:13.941Z,14.60
2023-04-22T01:27:46.613Z,10.90
2023-04-22T01:28:19.279Z,11.20
2023-04-22T01:28:51.950Z,12.20
2023-04-22T01:29:24.647Z,10.80
2023-04-22T01:29:57.307Z,10.20
2023-04-22T01:30:29.991Z,11.20
2023-04-22T01:31:02.666Z,11.30
2023-04-22T01:31:35.372Z,10.50
2023-04-22T01:32:08.076Z,11.20
2023-04-22T01:32:40.820Z,11.60
2023-04-22T01:33:13.577Z,9.90
2023-04-22T01:33:46.217Z,9.70
2023-04-22T01:34:18.914Z,11.00
2023-04-22T01:34:51.607Z,9.10
2023-04-22T01:35:24.291Z,8.70
2023-04-22T01:35:56.952Z,9.20
2023-04-22T01:36:29.612Z,9.00
2023-04-22T01:37:02.282Z,10.10
2023-04-22T01:37:34.987Z,8.50
2023-04-22T01:38:07.680Z,8.80
2023-04-22T01:38:40.352Z,9.60
2023-04-22T01:39:13.035Z,9.10
2023-04-22T01:39:45.723Z,9.60
2023-04-22T01:40:18.400Z,8.60
2023-04-22T01:40:51.068Z,11.10
2023-04-22T01:41:23.735Z,9.80
2023-04-22T01:41:56.396Z,8.30
2023-04-22T01:42:29.074Z,8.00
2023-04-22T01:43:01.737Z,8.90
2023-04-22T01:43:34.422Z,8.90
2023-04-22T01:44:07.198Z,7.60
2023-04-22T01:44:39.874Z,8.00
2023-04-22T01:45:12.551Z,8.50
2023-04-22T01:45:45.246Z,10.40
2023-04-22T01:46:18.052Z,8.00
2023-04-22T01:46:50.735Z,9.70
2023-04-22T01:47:23.539Z,8.30
2023-04-22T01:47:56.325Z,9.50
2023-04-22T01:48:29.023Z,8.60
2023-04-22T01:49:01.675Z,9.10
2023-04-22T01:49:34.340Z,8.80
2023-04-22T01:50:07.011Z,7.60
2023-04-22T01:50:39.697Z,8.60
2023-04-22T01:51:12.368Z,9.70
2023-04-22T01:51:45.039Z,9.70
2023-04-22T01:52:17.746Z,9.80
2023-04-22T01:52:50.405Z,8.60
2023-04-22T01:53:23.083Z,9.90
2023-04-22T01:53:55.763Z,8.30
2023-04-22T01:54:28.436Z,7.10
2023-04-22T01:55:01.117Z,8.10
2023-04-22T01:55:33.813Z,9.00
2023-04-22T01:56:06.504Z,7.70
2023-04-22T01:56:39.171Z,8.40
2023-04-22T01:57:11.836Z,8.40
2023-04-22T01:57:44.518Z,8.40
2023-04-22T01:58:17.169Z,7.80
2023-04-22T01:58:48.293Z,8.40
2023-04-22T01:59:20.965Z,8.60
2023-04-22T01:59:53.641Z,7.60
2023-04-22T02:00:26.288Z,8.00
2023-04-22T02:00:59.000Z,9.40
2023-04-22T02:01:31.690Z,8.80
2023-04-22T02:02:04.412Z,9.20
2023-04-22T02:02:37.161Z,11.30
2023-04-22T02:03:09.914Z,9.30
2023-04-22T02:03:42.701Z,8.50
2023-04-22T02:04:15.416Z,8.30
2023-04-22T02:04:48.144Z,8.10
2023-04-22T02:05:20.808Z,8.10
2023-04-22T02:05:53.487Z,10.50
2023-04-22T02:06:26.158Z,8.90
2023-04-22T02:06:58.832Z,7.60
2023-04-22T02:07:31.504Z,9.20
2023-04-22T02:08:04.167Z,9.90
2023-04-22T02:08:36.825Z,8.30
2023-04-22T02:09:09.492Z,10.20
2023-04-22T02:09:42.389Z,8.80
2023-04-22T02:10:08.698Z,7.90
2023-04-22T02:10:41.386Z,8.40
2023-04-22T02:11:14.069Z,9.20
2023-04-22T02:11:46.734Z,7.60
2023-04-22T02:12:19.442Z,7.60
2023-04-22T02:12:52.133Z,8.80
2023-04-22T02:13:24.794Z,9.40
2023-04-22T02:13:57.484Z,8.80
2023-04-22T02:14:30.139Z,9.50
2023-04-22T02:15:02.803Z,9.80
2023-04-22T02:15:35.486Z,8.50
2023-04-22T02:16:08.241Z,8.40
2023-04-22T02:16:40.962Z,8.00
2023-04-22T02:17:13.622Z,8.70
2023-04-22T02:17:46.434Z,8.00
2023-04-22T02:18:19.062Z,9.40
2023-04-22T02:18:51.733Z,7.20
2023-04-22T02:19:24.425Z,9.30
2023-04-22T02:19:57.120Z,8.50
2023-04-22T02:20:29.771Z,8.10
2023-04-22T02:21:02.473Z,8.50
2023-04-22T02:21:35.126Z,9.00
2023-04-22T02:22:07.820Z,8.90
2023-04-22T02:22:40.502Z,9.40
2023-04-22T02:23:13.162Z,9.40
2023-04-22T02:23:45.834Z,7.60
2023-04-22T02:24:18.492Z,8.20
2023-04-22T02:24:51.161Z,7.90
2023-04-22T02:25:23.839Z,8.80
2023-04-22T02:25:54.925Z,9.80
2023-04-22T02:26:27.594Z,9.00
2023-04-22T02:27:00.292Z,9.60
2023-04-22T02:27:32.942Z,9.50
2023-04-22T02:28:05.623Z,8.60
2023-04-22T02:28:38.291Z,7.70
2023-04-22T02:29:10.963Z,9.40
2023-04-22T02:29:43.641Z,8.50
2023-04-22T02:30:16.352Z,8.30
2023-04-22T02:30:49.070Z,8.20
2023-04-22T02:31:21.804Z,8.40
2023-04-22T02:31:54.532Z,8.40
2023-04-22T02:32:27.294Z,9.60
2023-04-22T02:33:00.031Z,8.00
2023-04-22T02:33:32.721Z,10.60
2023-04-22T02:34:05.392Z,8.60
2023-04-22T02:34:38.128Z,9.40
2023-04-22T02:35:10.789Z,9.60
2023-04-22T02:35:43.468Z,9.00
2023-04-22T02:36:16.112Z,8.50
2023-04-22T02:36:48.784Z,9.90
2023-04-22T02:37:21.452Z,9.30
2023-04-22T02:37:54.122Z,9.30
2023-04-22T02:38:26.793Z,7.30
2023-04-22T02:38:59.448Z,8.70
2023-04-22T02:39:32.120Z,9.10
2023-04-22T02:40:04.801Z,8.80
2023-04-22T02:40:37.468Z,9.10
2023-04-22T02:41:10.145Z,12.30
2023-04-22T02:41:42.826Z,8.80
2023-04-22T02:42:15.487Z,10.50
2023-04-22T02:42:48.146Z,8.30
2023-04-22T02:43:20.845Z,8.80
2023-04-22T02:43:53.501Z,8.30
2023-04-22T02:44:26.168Z,8.50
2023-04-22T02:44:58.828Z,8.60
2023-04-22T02:45:31.492Z,7.20
2023-04-22T02:46:04.264Z,8.80
2023-04-22T02:46:36.966Z,8.90
2023-04-22T02:47:09.653Z,9.20
2023-04-22T02:47:42.436Z,7.70
2023-04-22T02:48:15.105Z,8.60
2023-04-22T02:48:47.757Z,7.80
2023-04-22T02:49:20.449Z,8.00
2023-04-22T02:49:53.114Z,10.70
2023-04-22T02:50:25.801Z,8.70
2023-04-22T02:50:58.469Z,8.60
2023-04-22T02:51:31.153Z,9.30
2023-04-22T02:52:03.816Z,8.50
2023-04-22T02:52:36.509Z,7.30
2023-04-22T02:53:09.218Z,8.40
2023-04-22T02:53:41.869Z,9.50
2023-04-22T02:54:14.544Z,10.10
2023-04-22T02:54:47.218Z,7.50
2023-04-22T02:55:19.944Z,8.30
2023-04-22T02:55:52.623Z,9.60
2023-04-22T02:56:25.292Z,9.40
2023-04-22T02:56:57.964Z,8.20
2023-04-22T02:57:30.636Z,8.30
2023-04-22T02:58:03.332Z,8.60
2023-04-22T02:58:36.001Z,9.90
2023-04-22T02:59:08.661Z,6.90
2023-04-22T02:59:41.641Z,12.00
2023-04-22T03:00:07.994Z,8.90
2023-04-22T03:00:40.723Z,9.60
2023-04-22T03:01:13.405Z,9.20
2023-04-22T03:01:46.071Z,8.50
2023-04-22T03:02:18.786Z,9.40
2023-04-22T03:02:51.683Z,9.80
2023-04-22T03:03:24.602Z,8.90
2023-04-22T03:03:57.508Z,10.20
2023-04-22T03:04:24.035Z,9.90
2023-04-22T03:04:56.843Z,9.60
2023-04-22T03:05:29.539Z,9.10
2023-04-22T03:06:02.216Z,8.40
2023-04-22T03:06:34.967Z,9.00
2023-04-22T03:07:07.680Z,9.20
2023-04-22T03:07:40.334Z,9.50
2023-04-22T03:08:13.007Z,8.50
2023-04-22T03:08:45.709Z,9.60
2023-04-22T03:09:18.370Z,8.10
2023-04-22T03:09:51.037Z,10.10
2023-04-22T03:10:23.706Z,8.60
2023-04-22T03:10:56.404Z,8.60
2023-04-22T03:11:29.063Z,7.70
2023-04-22T03:12:01.734Z,8.50
2023-04-22T03:12:34.400Z,8.90
2023-04-22T03:13:07.075Z,8.80
2023-04-22T03:13:39.766Z,8.40
2023-04-22T03:14:12.427Z,9.10
2023-04-22T03:14:45.101Z,10.10
2023-04-22T03:15:21.114Z,8.70
2023-04-22T03:15:47.710Z,8.80
2023-04-22T03:16:20.432Z,8.30
2023-04-22T03:16:53.251Z,9.90
2023-04-22T03:17:26.183Z,9.80
2023-04-22T03:17:58.908Z,7.90
2023-04-22T03:18:31.634Z,7.70
2023-04-22T03:19:04.282Z,9.40
2023-04-22T03:19:37.072Z,10.70
2023-04-22T03:20:09.881Z,8.50
2023-04-22T03:20:42.539Z,9.30
2023-04-22T03:21:15.209Z,7.80
2023-04-22T03:21:47.895Z,9.50
2023-04-22T03:22:20.564Z,9.20
2023-04-22T03:22:53.252Z,8.30
2023-04-22T03:23:25.926Z,10.10
2023-04-22T03:23:58.576Z,9.00
2023-04-22T03:24:31.265Z,9.30
2023-04-22T03:25:03.956Z,8.90
2023-04-22T03:25:36.656Z,7.90
2023-04-22T03:26:09.300Z,10.90
2023-04-22T03:26:41.981Z,9.80
2023-04-22T03:27:13.078Z,8.10
2023-04-22T03:27:45.747Z,9.10
2023-04-22T03:28:18.421Z,8.50
2023-04-22T03:28:51.124Z,11.40
2023-04-22T03:29:23.795Z,9.40
2023-04-22T03:29:56.447Z,9.40
2023-04-22T03:30:29.112Z,10.10
2023-04-22T03:31:01.786Z,8.50
2023-04-22T03:31:34.502Z,9.40
2023-04-22T03:32:07.240Z,8.40
2023-04-22T03:32:39.936Z,8.10
2023-04-22T03:33:12.614Z,9.80
2023-04-22T03:33:45.285Z,8.80
2023-04-22T03:34:17.948Z,9.40
2023-04-22T03:34:50.640Z,11.30
2023-04-22T03:35:23.331Z,11.80
2023-04-22T03:35:56.000Z,10.30
2023-04-22T03:36:28.691Z,9.70
2023-04-22T03:37:01.362Z,11.80
2023-04-22T03:37:34.036Z,8.20
2023-04-22T03:38:06.699Z,8.20
2023-04-22T03:38:39.408Z,10.30
2023-04-22T03:39:12.073Z,11.10
2023-04-22T03:39:44.748Z,11.80
2023-04-22T03:40:17.410Z,9.20
2023-04-22T03:40:51.567Z,9.50
2023-04-22T03:41:17.885Z,10.30
2023-04-22T03:41:50.584Z,9.50
2023-04-22T03:42:23.228Z,9.50
2023-04-22T03:42:55.918Z,10.60
2023-04-22T03:43:28.581Z,9.50
2023-04-22T03:44:02.102Z,11.70
2023-04-22T03:44:28.310Z,11.10
2023-04-22T03:45:00.975Z,12.40
2023-04-22T03:45:33.731Z,9.20
2023-04-22T03:46:06.441Z,8.60
2023-04-22T03:46:39.132Z,9.70
2023-04-22T03:47:05.814Z,9.20
2023-04-22T03:47:38.826Z,11.90
2023-04-22T03:48:11.506Z,11.40
2023-04-22T03:48:44.184Z,10.60
2023-04-22T03:49:16.870Z,8.90
2023-04-22T03:49:49.518Z,11.10
2023-04-22T03:50:22.188Z,10.00
2023-04-22T03:50:54.853Z,10.70
2023-04-22T03:51:27.517Z,10.00
2023-04-22T03:52:00.212Z,10.30
2023-04-22T03:52:32.887Z,9.90
2023-04-22T03:53:05.541Z,10.30
2023-04-22T03:53:38.215Z,11.50
2023-04-22T03:54:10.879Z,11.40
2023-04-22T03:54:43.549Z,10.30
2023-04-22T03:55:16.217Z,10.30
2023-04-22T03:55:48.888Z,9.80
2023-04-22T03:56:21.584Z,10.20
2023-04-22T03:56:54.244Z,10.20
2023-04-22T03:57:26.930Z,12.40
2023-04-22T03:57:59.582Z,9.60
2023-04-22T03:58:32.253Z,11.40
2023-04-22T03:59:04.940Z,10.00
2023-04-22T03:59:37.910Z,10.10
2023-04-22T04:00:04.268Z,11.80
2023-04-22T04:00:36.928Z,9.40
2023-04-22T04:01:09.604Z,10.50
2023-04-22T04:01:42.279Z,10.70
2023-04-22T04:02:15.069Z,10.70
2023-04-22T04:02:48.018Z,10.50
2023-04-22T04:03:21.067Z,9.80
2023-04-22T04:03:47.500Z,10.30
2023-04-22T04:04:20.548Z,11.60
2023-04-22T04:04:47.445Z,12.90
2023-04-22T04:05:13.992Z,9.60
2023-04-22T04:05:46.742Z,8.90
2023-04-22T04:06:19.426Z,10.10
2023-04-22T04:06:52.094Z,10.90
2023-04-22T04:07:24.785Z,11.10
2023-04-22T04:07:57.455Z,10.40
2023-04-22T04:08:30.122Z,9.80
2023-04-22T04:09:02.816Z,11.80
2023-04-22T04:09:35.458Z,9.90
2023-04-22T04:10:08.116Z,9.70
2023-04-22T04:10:40.793Z,12.10
2023-04-22T04:11:13.458Z,10.00
2023-04-22T04:11:46.131Z,9.60
2023-04-22T04:12:18.822Z,11.10
2023-04-22T04:12:51.499Z,10.70
2023-04-22T04:13:24.159Z,11.40
2023-04-22T04:13:56.827Z,11.70
2023-04-22T04:14:29.497Z,10.50
2023-04-22T04:15:02.202Z,10.10
2023-04-22T04:15:34.894Z,10.50
2023-04-22T04:16:07.605Z,10.90
2023-04-22T04:16:40.289Z,10.50
2023-04-22T04:17:12.961Z,10.60
2023-04-22T04:17:45.694Z,10.60
2023-04-22T04:18:18.361Z,10.40
2023-04-22T04:18:51.026Z,11.50
2023-04-22T04:19:23.702Z,11.30
2023-04-22T04:19:56.351Z,9.40
2023-04-22T04:20:29.035Z,10.70
2023-04-22T04:21:01.700Z,11.00
2023-04-22T04:21:34.375Z,11.40
2023-04-22T04:22:07.057Z,10.50
2023-04-22T04:22:39.732Z,9.70
2023-04-22T04:23:12.387Z,10.90
2023-04-22T04:23:45.057Z,10.20
2023-04-22T04:24:17.732Z,10.90
2023-04-22T04:24:50.404Z,10.80
2023-04-22T04:25:23.083Z,12.10
2023-04-22T04:25:55.778Z,10.20
2023-04-22T04:26:28.450Z,12.30
2023-04-22T04:27:01.125Z,11.90
2023-04-22T04:27:33.797Z,13.80
2023-04-22T04:28:06.461Z,12.20
2023-04-22T04:28:39.165Z,11.80
2023-04-22T04:29:11.821Z,14.20
2023-04-22T04:29:44.501Z,12.20
2023-04-22T04:30:17.155Z,12.60
2023-04-22T04:30:49.895Z,15.00
2023-04-22T04:31:22.588Z,12.10
2023-04-22T04:31:55.251Z,11.80
2023-04-22T04:32:27.961Z,12.00
2023-04-22T04:33:00.679Z,12.30
2023-04-22T04:33:33.384Z,11.60
2023-04-22T04:34:06.050Z,11.20
2023-04-22T04:34:38.740Z,11.70
2023-04-22T04:35:11.407Z,10.40
2023-04-22T04:35:44.054Z,12.30
2023-04-22T04:36:16.736Z,10.40
2023-04-22T04:36:49.407Z,11.50
2023-04-22T04:37:22.088Z,11.20
2023-04-22T04:37:54.775Z,12.80
2023-04-22T04:38:27.456Z,11.50
2023-04-22T04:39:00.140Z,12.60
2023-04-22T04:39:32.788Z,9.90
2023-04-22T04:40:05.472Z,11.80
2023-04-22T04:40:38.145Z,10.90
2023-04-22T04:41:10.833Z,12.10
2023-04-22T04:41:43.479Z,15.20
2023-04-22T04:42:16.172Z,13.30
2023-04-22T04:42:47.254Z,13.40
2023-04-22T04:43:19.945Z,13.40
2023-04-22T04:43:52.599Z,11.20
2023-04-22T04:44:25.267Z,11.00
2023-04-22T04:44:57.972Z,11.30
2023-04-22T04:45:30.619Z,11.40
2023-04-22T04:46:03.340Z,12.10
2023-04-22T04:46:36.057Z,11.30
2023-04-22T04:47:08.718Z,12.00
2023-04-22T04:47:41.411Z,12.10
2023-04-22T04:48:14.134Z,11.30
2023-04-22T04:48:46.803Z,12.60
2023-04-22T04:49:19.458Z,12.20
2023-04-22T04:49:52.158Z,11.00
2023-04-22T04:50:24.814Z,12.00
2023-04-22T04:50:57.467Z,10.80
2023-04-22T04:51:30.132Z,13.60
2023-04-22T04:52:02.838Z,10.50
2023-04-22T04:52:35.532Z,11.10
2023-04-22T04:53:08.202Z,10.60
2023-04-22T04:53:40.873Z,12.50
2023-04-22T04:54:13.568Z,11.60
2023-04-22T04:54:46.211Z,10.60
2023-04-22T04:55:18.882Z,11.20
2023-04-22T04:55:51.567Z,11.50
2023-04-22T04:56:24.233Z,12.50
2023-04-22T04:56:56.893Z,11.60
2023-04-22T04:57:29.571Z,11.40
2023-04-22T04:58:02.240Z,12.80
2023-04-22T04:58:34.919Z,10.60
2023-04-22T04:59:07.573Z,13.30
2023-04-22T04:59:40.550Z,11.80
2023-04-22T05:00:06.978Z,10.90
2023-04-22T05:00:39.639Z,10.50
2023-04-22T05:01:12.369Z,12.00
2023-04-22T05:01:45.077Z,10.30
2023-04-22T05:02:17.940Z,11.40
2023-04-22T05:02:50.846Z,11.10
2023-04-22T05:03:23.663Z,11.00
2023-04-22T05:03:56.584Z,12.00
2023-04-22T05:04:29.456Z,10.30
2023-04-22T05:05:02.383Z,11.50
2023-04-22T05:05:35.169Z,10.80
2023-04-22T05:06:07.865Z,13.40
2023-04-22T05:06:40.550Z,11.90
2023-04-22T05:07:13.218Z,10.30
2023-04-22T05:07:45.920Z,10.30
2023-04-22T05:08:18.642Z,10.70
2023-04-22T05:08:51.296Z,9.40
2023-04-22T05:09:23.950Z,11.70
2023-04-22T05:09:56.627Z,11.40
2023-04-22T05:10:29.285Z,11.50
2023-04-22T05:11:01.994Z,12.80
2023-04-22T05:11:34.663Z,10.80
2023-04-22T05:12:07.319Z,9.70
2023-04-22T05:12:40.004Z,10.80
2023-04-22T05:13:12.688Z,10.70
2023-04-22T05:13:45.388Z,11.80
2023-04-22T05:14:18.078Z,11.50
2023-04-22T05:14:50.728Z,13.80
2023-04-22T05:15:23.397Z,12.50
2023-04-22T05:15:56.124Z,11.90
2023-04-22T05:16:28.802Z,11.00
2023-04-22T05:17:01.455Z,10.70
2023-04-22T05:17:34.124Z,9.60
2023-04-22T05:18:06.836Z,10.90
2023-04-22T05:18:39.556Z,12.70
2023-04-22T05:19:12.235Z,12.60
2023-04-22T05:19:44.895Z,13.40
2023-04-22T05:20:17.590Z,12.70
2023-04-22T05:20:50.224Z,12.10
2023-04-22T05:21:22.885Z,11.50
2023-04-22T05:21:55.572Z,13.50
2023-04-22T05:22:28.224Z,12.50
2023-04-22T05:23:00.900Z,12.40
2023-04-22T05:23:33.580Z,12.00
2023-04-22T05:24:06.247Z,11.70
2023-04-22T05:24:38.957Z,10.70
2023-04-22T05:25:11.595Z,11.20
2023-04-22T05:25:44.254Z,10.80
2023-04-22T05:26:16.927Z,11.80
2023-04-22T05:26:49.584Z,11.90
2023-04-22T05:27:22.254Z,12.20
2023-04-22T05:27:54.936Z,11.80
2023-04-22T05:28:27.649Z,11.70
2023-04-22T05:29:00.296Z,14.20
2023-04-22T05:29:32.962Z,10.90
2023-04-22T05:30:05.651Z,14.60
2023-04-22T05:30:38.299Z,13.00
2023-04-22T05:31:10.972Z,10.00
2023-04-22T05:31:43.671Z,11.70
2023-04-22T05:32:16.467Z,11.50
2023-04-22T05:32:49.237Z,11.20
2023-04-22T05:33:21.876Z,13.00
2023-04-22T05:33:52.976Z,13.40
2023-04-22T05:34:25.699Z,10.40
2023-04-22T05:34:58.361Z,10.70
2023-04-22T05:35:31.038Z,11.80
2023-04-22T05:36:03.723Z,11.90
2023-04-22T05:36:36.422Z,13.60
2023-04-22T05:37:09.095Z,11.20
2023-04-22T05:37:41.773Z,11.20
2023-04-22T05:38:14.450Z,11.40
2023-04-22T05:38:47.144Z,11.60
2023-04-22T05:39:19.820Z,10.60
2023-04-22T05:39:52.491Z,11.10
2023-04-22T05:40:25.155Z,12.80
2023-04-22T05:40:57.826Z,10.70
2023-04-22T05:41:30.499Z,13.40
2023-04-22T05:42:03.168Z,12.20
2023-04-22T05:42:35.853Z,11.80
2023-04-22T05:43:08.517Z,13.10
2023-04-22T05:43:41.190Z,15.10
2023-04-22T05:44:13.871Z,11.60
2023-04-22T05:44:46.542Z,11.20
2023-04-22T05:45:19.206Z,12.50
2023-04-22T05:45:51.939Z,10.80
2023-04-22T05:46:24.692Z,12.50
2023-04-22T05:46:57.385Z,11.20
2023-04-22T05:47:30.085Z,10.60
2023-04-22T05:48:02.857Z,11.30
2023-04-22T05:48:35.561Z,11.50
2023-04-22T05:49:08.230Z,12.00
2023-04-22T05:49:41.216Z,12.60
2023-04-22T05:50:07.720Z,11.30
2023-04-22T05:50:40.404Z,13.20
2023-04-22T05:51:13.062Z,13.30
2023-04-22T05:51:45.716Z,14.10
2023-04-22T05:52:18.408Z,12.10
2023-04-22T05:52:51.089Z,11.20
2023-04-22T05:53:23.805Z,12.10
2023-04-22T05:53:56.451Z,12.60
2023-04-22T05:54:29.162Z,10.80
2023-04-22T05:55:01.807Z,13.70
2023-04-22T05:55:34.482Z,12.30
2023-04-22T05:56:07.156Z,10.90
2023-04-22T05:56:39.829Z,11.00
2023-04-22T05:57:12.493Z,12.20
2023-04-22T05:57:45.149Z,11.30
2023-04-22T05:58:17.824Z,12.90
2023-04-22T05:58:50.490Z,12.40
2023-04-22T05:59:23.158Z,13.00
2023-04-22T05:59:55.840Z,15.20
2023-04-22T06:00:28.505Z,13.40
2023-04-22T06:01:01.171Z,14.10
2023-04-22T06:01:33.847Z,12.40
2023-04-22T06:02:06.742Z,11.90
2023-04-22T06:02:39.584Z,12.60
2023-04-22T06:03:12.542Z,12.10
2023-04-22T06:03:39.215Z,12.00
2023-04-22T06:04:05.798Z,12.40
2023-04-22T06:04:37.820Z,12.00
2023-04-22T06:05:04.885Z,10.90
2023-04-22T06:05:31.306Z,10.30
2023-04-22T06:06:04.045Z,13.20
2023-04-22T06:06:36.701Z,11.50
2023-04-22T06:07:09.380Z,11.90
2023-04-22T06:07:42.061Z,10.30
2023-04-22T06:08:14.723Z,11.60
2023-04-22T06:08:47.407Z,12.60
2023-04-22T06:09:20.063Z,10.90
2023-04-22T06:09:59.520Z,11.60
2023-04-22T06:10:24.859Z,11.60
2023-04-22T06:10:51.025Z,13.40
2023-04-22T06:11:23.700Z,12.00
2023-04-22T06:11:56.385Z,12.10
2023-04-22T06:12:29.059Z,12.90
2023-04-22T06:13:01.742Z,11.50
2023-04-22T06:13:34.419Z,11.80
2023-04-22T06:14:07.103Z,10.70
2023-04-22T06:14:39.758Z,11.90
2023-04-22T06:15:12.446Z,11.80
2023-04-22T06:15:45.138Z,12.00
2023-04-22T06:16:17.806Z,12.30
2023-04-22T06:16:50.460Z,13.50
2023-04-22T06:17:23.167Z,10.30
2023-04-22T06:17:55.903Z,10.90
2023-04-22T06:18:28.987Z,12.70
2023-04-22T06:18:55.332Z,12.20
2023-04-22T06:19:28.018Z,11.60
2023-04-22T06:20:00.682Z,12.30
2023-04-22T06:20:33.359Z,10.90
2023-04-22T06:21:06.042Z,11.60
2023-04-22T06:21:38.682Z,12.00
2023-04-22T06:22:11.349Z,11.70
2023-04-22T06:22:44.029Z,13.60
2023-04-22T06:23:16.710Z,11.70
2023-04-22T06:23:49.397Z,10.40
2023-04-22T06:24:22.050Z,11.10
2023-04-22T06:24:54.711Z,12.50
2023-04-22T06:25:27.390Z,11.70
2023-04-22T06:26:00.056Z,11.00
2023-04-22T06:26:32.733Z,12.90
2023-04-22T06:27:05.399Z,13.30
2023-04-22T06:27:38.047Z,13.30
2023-04-22T06:28:10.736Z,12.80
2023-04-22T06:28:43.418Z,12.90
2023-04-22T06:29:16.105Z,12.20
2023-04-22T06:29:48.773Z,14.60
2023-04-22T06:30:21.448Z,12.80
2023-04-22T06:30:54.134Z,10.50
2023-04-22T06:31:26.835Z,10.30
2023-04-22T06:31:59.481Z,13.20
2023-04-22T06:32:32.159Z,12.30
2023-04-22T06:33:04.886Z,14.40
2023-04-22T06:33:37.549Z,11.20
2023-04-22T06:34:10.224Z,13.00
2023-04-22T06:34:42.892Z,12.40
2023-04-22T06:35:15.561Z,13.40
2023-04-22T06:35:48.248Z,11.30
2023-04-22T06:36:20.927Z,11.90
2023-04-22T06:36:53.580Z,14.80
2023-04-22T06:37:26.243Z,12.70
2023-04-22T06:37:58.911Z,13.40
2023-04-22T06:38:31.596Z,12.50
2023-04-22T06:39:04.266Z,15.00
2023-04-22T06:39:36.932Z,11.90
2023-04-22T06:40:09.599Z,11.40
2023-04-22T06:40:42.279Z,12.50
2023-04-22T06:41:14.958Z,13.50
2023-04-22T06:41:47.620Z,10.90
2023-04-22T06:42:20.294Z,10.70
2023-04-22T06:42:52.947Z,10.90
2023-04-22T06:43:25.633Z,10.70
2023-04-22T06:43:58.307Z,10.10
2023-04-22T06:44:30.970Z,11.10
2023-04-22T06:45:03.636Z,12.00
2023-04-22T06:45:36.302Z,11.50
2023-04-22T06:46:08.995Z,11.40
2023-04-22T06:46:41.732Z,12.40
2023-04-22T06:47:14.414Z,13.40
2023-04-22T06:47:47.077Z,11.90
2023-04-22T06:48:19.757Z,11.50
2023-04-22T06:48:52.431Z,12.70
2023-04-22T06:49:25.116Z,10.10
2023-04-22T06:49:57.784Z,11.80
2023-04-22T06:50:30.453Z,11.10
2023-04-22T06:51:03.136Z,11.30
2023-04-22T06:51:35.824Z,11.60
2023-04-22T06:52:08.485Z,12.20
2023-04-22T06:52:41.155Z,10.00
2023-04-22T06:53:13.834Z,11.30
2023-04-22T06:53:46.524Z,11.10
2023-04-22T06:54:19.226Z,12.40
2023-04-22T06:54:51.909Z,10.70
2023-04-22T06:55:24.584Z,10.50
2023-04-22T06:55:57.251Z,11.00
2023-04-22T06:56:29.928Z,11.60
2023-04-22T06:57:02.599Z,11.80
2023-04-22T06:57:35.261Z,11.90
2023-04-22T06:58:07.935Z,11.00
2023-04-22T06:58:40.615Z,9.30
2023-04-22T06:59:13.290Z,12.60
2023-04-22T06:59:46.820Z,10.60
2023-04-22T07:00:13.329Z,10.80
2023-04-22T07:00:45.970Z,11.70
2023-04-22T07:01:18.705Z,11.80
2023-04-22T07:01:51.501Z,10.60
2023-04-22T07:02:24.194Z,13.10
2023-04-22T07:02:57.035Z,10.00
2023-04-22T07:03:29.908Z,10.70
2023-04-22T07:04:02.700Z,10.60
2023-04-22T07:04:35.490Z,11.60